Data for 01/27/2010

Time Sea-Level Adjusted Pressure Absolute Pressure Temperature Relative Humidity Dew Point   
(mb) (inHg) (mb) (inHg) (C) (F) (%) (C) (F)
00:05 1017 30.03 846 24.98 -7.9 17.7 90 -9.3 15.3
00:10 1017 30.03 846 24.98 -8.2 17.3 92 -9.2 15.4
00:15 1017 30.03 846 24.98 -8 17.7 91 -9.2 15.5
00:20 1017 30.03 846 24.98 -7.8 18 91 -9 15.8
00:25 1017 30.03 846 24.98 -7.8 18 90 -9.1 15.5
00:30 1017 30.03 846 24.98 -7.9 17.7 91 -9.1 15.5
00:35 1017 30.03 846 24.98 -7.8 18 90 -9.1 15.6
00:40 1017 30.03 846 24.98 -7.7 18.1 90 -9.1 15.6
00:45 1017 30.03 846 24.98 -7.7 18.2 90 -9.1 15.6
00:50 1017 30.03 846 24.98 -7.7 18.2 90 -9.1 15.6
00:55 1017 30.03 846 24.98 -7.7 18.2 90 -9.1 15.6
01:00 1017 30.03 846 24.98 -7.7 18.1 90 -9.1 15.5
01:05 1017 30.03 846 24.98 -7.9 17.9 90 -9.2 15.5
01:10 1017 30.03 846 24.98 -7.9 17.8 90 -9.2 15.4
01:15 1017 30.03 846 24.98 -7.9 17.9 90 -9.2 15.4
01:20 1017 30.03 846 24.98 -7.9 17.7 90 -9.3 15.2
01:25 1017 30.03 846 24.98 -7.9 17.8 90 -9.3 15.2
01:30 1017 30.03 846 24.98 -8 17.5 90 -9.4 15.1
01:35 1017 30.03 846 24.98 -8.2 17.2 91 -9.4 15
01:40 1017 30.03 846 24.98 -8.1 17.3 92 -9.3 15.3
01:45 1017 30.03 846 24.98 -8.1 17.4 91 -9.3 15.3
01:50 1017 30.03 847 25.01 -8.1 17.3 92 -9.3 15.3
01:55 1017 30.03 847 25.01 -8.2 17.2 91 -9.5 15
02:00 1018 30.06 847 25.01 -8.3 17.1 92 -9.3 15.2
02:05 1018 30.06 847 25.01 -8 17.6 91 -9.2 15.4
02:10 1018 30.06 847 25.01 -7.9 17.7 91 -9.2 15.5
02:15 1018 30.06 847 25.01 -8 17.7 90 -9.3 15.3
02:20 1018 30.06 847 25.01 -7.9 17.7 90 -9.3 15.3
02:25 1018 30.06 847 25.01 -7.9 17.8 91 -9.2 15.5
02:30 1018 30.06 847 25.01 -7.9 17.8 91 -9.2 15.5
02:35 1018 30.06 847 25.01 -7.9 17.8 90 -9.2 15.4
02:40 1018 30.06 847 25.01 -7.9 17.8 90 -9.2 15.4
02:45 1018 30.06 847 25.01 -7.9 17.8 90 -9.3 15.3
02:50 1018 30.06 847 25.01 -7.9 17.8 90 -9.3 15.3
02:55 1018 30.06 847 25.01 -8.1 17.5 90 -9.4 15
03:00 1018 30.06 847 25.01 -8.2 17.2 90 -9.5 14.9
03:05 1018 30.06 847 25.01 -8.2 17.2 91 -9.5 14.9
03:10 1018 30.06 847 25.01 -8.2 17.3 91 -9.4 15
03:15 1018 30.06 847 25.01 -8.1 17.4 91 -9.3 15.2
03:20 1018 30.06 847 25.01 -8 17.6 91 -9.2 15.4
03:25 1018 30.06 847 25.01 -7.9 17.7 90 -9.3 15.3
03:30 1018 30.06 848 25.04 -8 17.5 90 -9.4 15
03:35 1018 30.06 848 25.04 -8.1 17.5 90 -9.4 15.1
03:40 1018 30.06 848 25.04 -8 17.6 90 -9.4 15.1
03:45 1018 30.06 848 25.04 -8.1 17.5 90 -9.5 14.9
03:50 1018 30.06 848 25.04 -8.3 17 92 -9.5 15
03:55 1018 30.06 848 25.04 -8.3 17.1 92 -9.4 15.1
04:00 1018 30.06 848 25.04 -8.2 17.2 91 -9.4 15
04:05 1018 30.06 848 25.04 -8.2 17.3 91 -9.4 15.1
04:10 1018 30.06 848 25.04 -8 17.7 91 -9.2 15.4
04:15 1018 30.06 848 25.04 -7.8 17.9 90 -9.2 15.4
04:20 1019 30.09 848 25.04 -7.9 17.9 90 -9.2 15.4
04:25 1019 30.09 848 25.04 -7.8 17.9 89 -9.3 15.3
04:30 1019 30.09 848 25.04 -7.8 17.9 89 -9.3 15.3
04:35 1019 30.09 848 25.04 -7.8 18 90 -9.2 15.5
04:40 1019 30.09 848 25.04 -7.7 18.2 89 -9.2 15.5
04:45 1019 30.09 848 25.04 -7.7 18.2 89 -9.2 15.5
04:50 1019 30.09 848 25.04 -7.6 18.3 89 -9.2 15.5
04:55 1019 30.09 848 25.04 -7.8 17.9 90 -9.3 15.3
05:00 1019 30.09 848 25.04 -8.2 17.3 92 -9.3 15.3
05:05 1019 30.09 848 25.04 -8.1 17.3 92 -9.2 15.4
05:10 1019 30.09 848 25.04 -7.9 17.8 91 -9.2 15.5
05:15 1019 30.09 848 25.04 -7.9 17.8 90 -9.2 15.4
05:20 1019 30.09 848 25.04 -7.8 17.9 90 -9.2 15.4
05:25 1019 30.09 848 25.04 -7.7 18.1 89 -9.3 15.3
05:30 1019 30.09 849 25.07 -7.9 17.9 89 -9.4 15
05:35 1019 30.09 849 25.07 -8.1 17.3 91 -9.4 15.1
05:40 1019 30.09 849 25.07 -8.1 17.5 90 -9.4 15.1
05:45 1019 30.09 849 25.07 -8 17.6 90 -9.4 15.1
05:50 1019 30.09 849 25.07 -8.1 17.4 90 -9.5 14.9
05:55 1020 30.12 849 25.07 -8.4 16.8 92 -9.5 15
06:00 1020 30.12 849 25.07 -8.3 17 92 -9.4 15.2
06:05 1020 30.12 849 25.07 -8.2 17.2 91 -9.4 15
06:10 1020 30.12 849 25.07 -8.4 16.8 93 -9.4 15.1
06:15 1020 30.12 849 25.07 -8.4 16.8 93 -9.3 15.3
06:20 1020 30.12 849 25.07 -8.2 17.2 93 -9.2 15.4
06:25 1020 30.12 849 25.07 -8.1 17.5 92 -9.2 15.5
06:30 1020 30.12 849 25.07 -8 17.5 91 -9.2 15.4
06:35 1020 30.12 849 25.07 -8 17.5 91 -9.2 15.4
06:40 1020 30.12 849 25.07 -8 17.6 91 -9.2 15.4
06:45 1020 30.12 849 25.07 -8 17.5 90 -9.4 15.1
06:50 1020 30.12 849 25.07 -8.2 17.2 91 -9.4 15
06:55 1020 30.12 850 25.1 -8.3 17.2 92 -9.4 15.1
07:00 1020 30.12 850 25.1 -8.1 17.4 91 -9.3 15.2
07:05 1020 30.12 850 25.1 -8 17.6 90 -9.3 15.3
07:10 1020 30.12 850 25.1 -8.1 17.5 90 -9.4 15.1
07:15 1020 30.12 850 25.1 -8.2 17.3 91 -9.4 15
07:20 1020 30.12 850 25.1 -8.2 17.2 91 -9.4 15
07:25 1021 30.15 850 25.1 -8.2 17.3 91 -9.4 15.1
07:30 1021 30.15 850 25.1 -8.1 17.5 91 -9.3 15.3
07:35 1021 30.15 850 25.1 -8.1 17.5 91 -9.3 15.3
07:40 1021 30.15 850 25.1 -8.1 17.4 91 -9.3 15.3
07:45 1021 30.15 850 25.1 -8.2 17.2 92 -9.3 15.3
07:50 1021 30.15 850 25.1 -8.2 17.2 92 -9.3 15.3
07:55 1021 30.15 850 25.1 -8.2 17.2 92 -9.3 15.3
08:00 1021 30.15 850 25.1 -8.2 17.2 93 -9.2 15.4
08:05 1021 30.15 850 25.1 -8.1 17.4 92 -9.2 15.5
08:10 1021 30.15 850 25.1 -8 17.6 92 -9 15.7
08:15 1021 30.15 850 25.1 -7.9 17.7 91 -9.2 15.5
08:20 1021 30.15 850 25.1 -8.1 17.4 92 -9.2 15.4
08:25 1021 30.15 850 25.1 -8.1 17.5 92 -9.2 15.5
08:30 1021 30.15 850 25.1 -8 17.6 91 -9.2 15.5
08:35 1021 30.15 851 25.13 -7.8 17.9 91 -9.1 15.7
08:40 1021 30.15 851 25.13 -7.7 18.2 90 -9 15.8
08:45 1021 30.15 851 25.13 -7.3 18.9 89 -8.8 16.2
08:50 1021 30.15 851 25.13 -7 19.5 87 -8.7 16.3
08:55 1021 30.15 851 25.13 -6.8 19.8 86 -8.7 16.4
09:00 1022 30.18 851 25.13 -6.8 19.7 86 -8.8 16.2
09:05 1022 30.18 851 25.13 -7 19.3 87 -8.9 16
09:10 1022 30.18 851 25.13 -7 19.4 87 -8.9 16
09:15 1022 30.18 851 25.13 -6.8 19.7 86 -8.8 16.2
09:20 1022 30.18 851 25.13 -6.6 20.1 85 -8.7 16.3
09:25 1022 30.18 851 25.13 -6.4 20.6 84 -8.7 16.4
09:30 1022 30.18 851 25.13 -6.4 20.4 84 -8.7 16.4
09:35 1022 30.18 851 25.13 -6.5 20.4 85 -8.6 16.6
09:40 1022 30.18 851 25.13 -6.5 20.3 86 -8.5 16.6
09:45 1022 30.18 851 25.13 -6.1 21 83 -8.5 16.7
09:50 1022 30.18 851 25.13 -5.8 21.6 82 -8.4 16.8
09:55 1022 30.18 851 25.13 -5.8 21.6 82 -8.3 17
10:00 1022 30.18 851 25.13 -6.1 21.1 84 -8.4 16.9
10:05 1022 30.18 851 25.13 -5.9 21.4 82 -8.5 16.7
10:10 1022 30.18 851 25.13 -5.6 21.9 80 -8.5 16.7
10:15 1022 30.18 851 25.13 -6 21.1 82 -8.7 16.4
10:20 1022 30.18 851 25.13 -6.1 21 81 -8.8 16.2
10:25 1022 30.18 852 25.16 -6 21.2 82 -8.7 16.4
10:30 1022 30.18 852 25.16 -5.9 21.3 82 -8.6 16.6
10:35 1023 30.21 852 25.16 -6.7 20 83 -9 15.8
10:40 1023 30.21 852 25.16 -6 21.2 80 -9 15.8
10:45 1023 30.21 852 25.16 -5.8 21.6 79 -8.9 16
10:50 1023 30.21 852 25.16 -5.4 22.4 76 -9 15.8
10:55 1023 30.21 852 25.16 -5.4 22.2 77 -8.9 16
11:00 1023 30.21 852 25.16 -5.5 22.1 76 -9 15.7
11:05 1023 30.21 852 25.16 -6.2 20.8 81 -9 15.9
11:10 1023 30.21 852 25.16 -5.9 21.3 78 -9.2 15.5
11:15 1023 30.21 852 25.16 -5.3 22.5 75 -9 15.7
11:20 1023 30.21 852 25.16 -4.8 23.4 75 -8.5 16.7
11:25 1023 30.21 852 25.16 -4.5 23.9 73 -8.6 16.5
11:30 1023 30.21 852 25.16 -4.4 24.1 73 -8.6 16.6
11:35 1023 30.21 852 25.16 -4.5 23.9 75 -8.3 17
11:40 1023 30.21 852 25.16 -4.5 23.8 73 -8.7 16.3
11:45 1023 30.21 852 25.16 -4.1 24.6 71 -8.5 16.6
11:50 1023 30.21 852 25.16 -4.3 24.3 73 -8.5 16.7
11:55 1023 30.21 852 25.16 -5 22.9 76 -8.6 16.5
12:00 1023 30.21 852 25.16 -5.6 22 79 -8.6 16.5
12:05 1023 30.21 852 25.16 -5 23 74 -8.9 16
12:10 1023 30.21 852 25.16 -4.6 23.7 73 -8.7 16.4
12:15 1023 30.21 852 25.16 -4.4 24 74 -8.4 16.8
12:20 1023 30.21 852 25.16 -4.4 24.1 74 -8.4 16.9
12:25 1023 30.21 852 25.16 -4.2 24.4 72 -8.5 16.8
12:30 1023 30.21 852 25.16 -3.8 25.2 71 -8.3 17.1
12:35 1023 30.21 852 25.16 -3.9 25 73 -8 17.6
12:40 1023 30.21 852 25.16 -4.5 24 74 -8.5 16.7
12:45 1023 30.21 852 25.16 -4.9 23.2 79 -8.1 17.5
12:50 1023 30.21 852 25.16 -5.1 22.9 76 -8.7 16.3
12:55 1023 30.21 852 25.16 -5.2 22.7 78 -8.4 16.9
13:00 1023 30.21 852 25.16 -4.5 24 74 -8.5 16.8
13:05 1023 30.21 852 25.16 -4.5 23.8 75 -8.4 16.9
13:10 1023 30.21 852 25.16 -5.1 22.8 79 -8.2 17.2
13:15 1022 30.18 852 25.16 -4.4 24.2 74 -8.3 17
13:20 1022 30.18 852 25.16 -4.3 24.2 76 -8 17.6
13:25 1022 30.18 852 25.16 -4.9 23.2 78 -8.1 17.4
13:30 1022 30.18 852 25.16 -4.1 24.6 74 -8.2 17.3
13:35 1022 30.18 852 25.16 -3.8 25.1 72 -8.2 17.3
13:40 1022 30.18 852 25.16 -3.9 25 74 -7.9 17.7
13:45 1022 30.18 852 25.16 -3.7 25.3 73 -7.9 17.8
13:50 1022 30.18 852 25.16 -4.2 24.5 75 -8 17.6
13:55 1022 30.18 852 25.16 -3.9 25 73 -8 17.6
14:00 1022 30.18 852 25.16 -3.7 25.3 75 -7.6 18.4
14:05 1023 30.21 852 25.16 -3.6 25.6 73 -7.7 18.1
14:10 1023 30.21 852 25.16 -3.7 25.4 73 -7.8 18
14:15 1023 30.21 852 25.16 -3.6 25.5 72 -8 17.6
14:20 1022 30.18 852 25.16 -3.6 25.4 72 -8 17.6
14:25 1023 30.21 852 25.16 -3.5 25.7 71 -8 17.7
14:30 1023 30.21 852 25.16 -3.6 25.6 72 -7.9 17.7
14:35 1023 30.21 852 25.16 -5 23 79 -8.1 17.4
14:40 1023 30.21 852 25.16 -4.7 23.5 77 -8.2 17.2
14:45 1022 30.18 852 25.16 -3.7 25.3 71 -8.3 17
14:50 1022 30.18 852 25.16 -4.4 24.2 76 -8 17.5
14:55 1023 30.21 852 25.16 -4.8 23.3 77 -8.3 17
15:00 1023 30.21 852 25.16 -3.8 25.2 72 -8.2 17.3
15:05 1023 30.21 852 25.16 -3.6 25.5 72 -7.9 17.7
15:10 1023 30.21 852 25.16 -2.8 27 67 -8.1 17.5
15:15 1023 30.21 852 25.16 -1.7 28.9 64 -7.7 18.2
15:20 1023 30.21 852 25.16 -2 28.3 65 -7.7 18.1
15:25 1023 30.21 852 25.16 -2.6 27.3 66 -8.1 17.5
15:30 1023 30.21 852 25.16 -2.8 26.9 69 -7.8 18
15:35 1023 30.21 852 25.16 -2.8 26.9 67 -8.1 17.4
15:40 1023 30.21 852 25.16 -2.6 27.4 66 -8.1 17.4
15:45 1023 30.21 852 25.16 -3.1 26.4 68 -8.2 17.3
15:50 1023 30.21 852 25.16 -2.5 27.4 65 -8.2 17.2
15:55 1023 30.21 852 25.16 -2.7 27.1 67 -8.1 17.4
16:00 1023 30.21 852 25.16 -3.2 26.2 70 -7.9 17.8
16:05 1023 30.21 852 25.16 -3.5 25.7 69 -8.3 17
16:10 1023 30.21 852 25.16 -3.5 25.6 69 -8.4 16.9
16:15 1023 30.21 852 25.16 -3.8 25.2 71 -8.2 17.2
16:20 1023 30.21 852 25.16 -3.8 25.1 70 -8.5 16.7
16:25 1023 30.21 852 25.16 -4.8 23.3 77 -8.3 17.1
16:30 1023 30.21 852 25.16 -5.5 22.1 78 -8.8 16.1
16:35 1023 30.21 852 25.16 -5.2 22.6 77 -8.7 16.4
16:40 1023 30.21 852 25.16 -4.9 23.1 75 -8.7 16.3
16:45 1023 30.21 852 25.16 -4.6 23.8 73 -8.7 16.4
16:50 1023 30.21 852 25.16 -4.5 23.8 74 -8.5 16.7
16:55 1023 30.21 852 25.16 -5.4 22.2 78 -8.7 16.4
17:00 1023 30.21 852 25.16 -6.1 21.1 81 -8.8 16.1
17:05 1023 30.21 852 25.16 -6.4 20.4 82 -9 15.9
17:10 1023 30.21 852 25.16 -6.6 20.2 84 -8.9 16
17:15 1023 30.21 852 25.16 -6.6 20.2 83 -9 15.8
17:20 1023 30.21 852 25.16 -6.6 20.1 84 -9 15.9
17:25 1023 30.21 852 25.16 -6.9 19.6 85 -9.1 15.7
17:30 1023 30.21 852 25.16 -7.1 19.2 86 -9.1 15.7
17:35 1023 30.21 852 25.16 -7.3 18.9 86 -9.2 15.5
17:40 1023 30.21 853 25.19 -7.4 18.7 86 -9.4 15.1
17:45 1023 30.21 853 25.19 -7.5 18.6 85 -9.6 14.7
17:50 1023 30.21 853 25.19 -7.7 18.2 83 -10 14
17:55 1023 30.21 853 25.19 -7.9 17.8 84 -10.2 13.6
18:00 1023 30.21 853 25.19 -8.2 17.2 84 -10.4 13.3
18:05 1023 30.21 853 25.19 -8.5 16.7 86 -10.5 13.1
18:10 1023 30.21 853 25.19 -9 15.7 89 -10.5 13.1
18:15 1023 30.21 853 25.19 -9.7 14.6 91 -10.9 12.4
18:20 1023 30.21 853 25.19 -10.2 13.7 93 -11.1 12
18:25 1023 30.21 852 25.16 -10.2 13.6 95 -10.9 12.4
18:30 1023 30.21 852 25.16 -10 14 95 -10.7 12.7
18:35 1023 30.21 852 25.16 -10.2 13.6 95 -10.9 12.3
18:40 1023 30.21 852 25.16 -10.3 13.4 95 -11 12.1
18:45 1023 30.21 852 25.16 -10.3 13.4 95 -10.9 12.3
18:50 1023 30.21 852 25.16 -10.2 13.6 95 -10.9 12.4
18:55 1023 30.21 852 25.16 -10.3 13.5 95 -11 12.3
19:00 1023 30.21 852 25.16 -10.2 13.7 95 -10.8 12.6
19:05 1023 30.21 852 25.16 -10.1 13.9 96 -10.6 12.9
19:10 1023 30.21 852 25.16 -9.9 14.2 95 -10.5 13.1
19:15 1023 30.21 852 25.16 -9.6 14.7 94 -10.4 13.4
19:20 1023 30.21 852 25.16 -9.7 14.6 93 -10.5 13
19:25 1023 30.21 852 25.16 -9.9 14.2 94 -10.7 12.7
19:30 1023 30.21 852 25.16 -9.8 14.3 95 -10.5 13
19:35 1023 30.21 852 25.16 -9.6 14.7 95 -10.3 13.4
19:40 1023 30.21 852 25.16 -9.5 14.9 94 -10.3 13.5
19:45 1023 30.21 852 25.16 -9.4 15.1 94 -10.2 13.7
19:50 1023 30.21 852 25.16 -9.3 15.2 94 -10.1 13.8
19:55 1023 30.21 852 25.16 -9.2 15.4 94 -10 14
20:00 1023 30.21 852 25.16 -8.9 16 93 -9.8 14.4
20:05 1023 30.21 852 25.16 -8.9 16 93 -9.7 14.5
20:10 1023 30.21 852 25.16 -8.9 15.9 92 -10 13.9
20:15 1023 30.21 852 25.16 -9.2 15.5 93 -10.1 13.9
20:20 1023 30.21 852 25.16 -9.3 15.3 92 -10.3 13.5
20:25 1023 30.21 852 25.16 -9.6 14.8 91 -10.8 12.6
20:30 1023 30.21 852 25.16 -9.9 14.3 90 -11.2 11.9
20:35 1023 30.21 852 25.16 -10 14 92 -11.1 12
20:40 1023 30.21 853 25.19 -10.1 13.7 91 -11.3 11.6
20:45 1023 30.21 853 25.19 -10.2 13.6 93 -11.1 11.9
20:50 1023 30.21 852 25.16 -9.9 14.3 93 -10.7 12.7
20:55 1023 30.21 852 25.16 -9.5 14.9 92 -10.5 13
21:00 1023 30.21 853 25.19 -9.3 15.2 91 -10.5 13.1
21:05 1023 30.21 852 25.16 -9.7 14.6 90 -11 12.2
21:10 1023 30.21 852 25.16 -10.2 13.7 92 -11.3 11.6
21:15 1023 30.21 852 25.16 -10.3 13.5 91 -11.5 11.2
21:20 1023 30.21 852 25.16 -10.6 12.9 92 -11.7 11
21:25 1023 30.21 852 25.16 -10.6 12.9 94 -11.4 11.5
21:30 1023 30.21 852 25.16 -10.3 13.5 93 -11.2 11.9
21:35 1023 30.21 853 25.19 -10.3 13.6 93 -11.2 11.8
21:40 1023 30.21 853 25.19 -10.1 13.9 92 -11.2 11.9
21:45 1023 30.21 853 25.19 -10 14 91 -11.2 11.8
21:50 1023 30.21 853 25.19 -10.2 13.6 92 -11.4 11.6
21:55 1024 30.24 853 25.19 -10.4 13.3 91 -11.6 11.2
22:00 1024 30.24 853 25.19 -10.2 13.6 90 -11.5 11.3
22:05 1024 30.24 853 25.19 -10.2 13.7 90 -11.6 11.2
22:10 1024 30.24 853 25.19 -10.3 13.5 90 -11.5 11.2
22:15 1024 30.24 853 25.19 -10.2 13.6 90 -11.5 11.3
22:20 1024 30.24 853 25.19 -10.4 13.3 90 -11.7 11
22:25 1024 30.24 853 25.19 -10.6 12.9 92 -11.6 11.1
22:30 1024 30.24 853 25.19 -10.5 13.2 92 -11.5 11.2
22:35 1024 30.24 853 25.19 -10.4 13.3 92 -11.4 11.4
22:40 1024 30.24 853 25.19 -10.7 12.8 93 -11.6 11.1
22:45 1024 30.24 853 25.19 -10.6 12.9 93 -11.5 11.4
22:50 1024 30.24 853 25.19 -10.3 13.5 94 -11.1 12
22:55 1024 30.24 853 25.19 -10 14.1 92 -11 12.2
23:00 1024 30.24 853 25.19 -9.9 14.2 91 -11 12.1
23:05 1024 30.24 853 25.19 -10 14.1 89 -11.4 11.4
23:10 1024 30.24 853 25.19 -10.5 13.2 88 -12 10.3
23:15 1024 30.24 853 25.19 -11 12.2 89 -12.5 9.5
23:20 1024 30.24 853 25.19 -11.5 11.4 91 -12.7 9.2
23:25 1024 30.24 853 25.19 -11.1 12 94 -12 10.4
23:30 1024 30.24 854 25.22 -11.2 11.8 94 -12 10.4
23:35 1024 30.24 853 25.19 -11.2 11.9 96 -11.7 10.9
23:40 1024 30.24 853 25.19 -11 12.2 95 -11.7 10.9
23:45 1024 30.24 853 25.19 -11.2 11.8 95 -11.8 10.7
23:50 1024 30.24 853 25.19 -11.2 11.9 93 -12.2 10.1
23:55 1024 30.24 853 25.19 -11.4 11.4 93 -12.3 9.8
24:00 1024 30.24 853 25.19 -10.7 12.7 97 -11.1 12